Time;durP1;ratioP1;P1;durP2;ratioP2;P2;SDS_P1;SDS_P2;PMS_P1;PMS_P2;Temp;Humidity;BMP_temperature;BMP_pressure;BME280_temperature;BME280_humidity;BME280_pressure;Samples;Min_cycle;Max_cycle;Signal;HPM_P1;HPM_P2
2022/12/21 00:01:15;;;;;;;23.80;14.73;;;4.90;99.90;;;;;;4973967;28;20023;-71
2022/12/21 00:03:43;;;;;;;28.52;16.27;;;4.90;99.90;;;;;;4974922;28;20050;-70
2022/12/21 00:06:09;;;;;;;34.47;15.73;;;4.90;99.90;;;;;;4974453;28;20443;-71
2022/12/21 00:08:43;;;;;;;22.65;14.82;;;4.90;99.90;;;;;;4974640;28;20027;-71
2022/12/21 00:11:09;;;;;;;31.20;15.63;;;5.00;99.90;;;;;;4974808;28;20073;-71
2022/12/21 00:13:35;;;;;;;28.00;17.45;;;4.90;99.90;;;;;;4974226;28;20478;-71
2022/12/21 00:16:04;;;;;;;115.43;20.02;;;5.00;99.90;;;;;;4974071;28;20046;-71
2022/12/21 00:18:34;;;;;;;72.68;18.70;;;5.00;99.90;;;;;;4974429;28;20034;-70
2022/12/21 00:21:10;;;;;;;97.35;19.80;;;5.00;99.90;;;;;;4973787;28;20134;-71
2022/12/21 00:23:36;;;;;;;127.93;21.65;;;5.00;99.90;;;;;;4974454;28;20070;-70
2022/12/21 00:26:04;;;;;;;50.65;19.95;;;5.10;99.90;;;;;;4973717;28;20059;-71
2022/12/21 00:28:30;;;;;;;79.82;19.83;;;5.00;99.90;;;;;;4974365;28;20023;-70
2022/12/21 00:31:04;;;;;;;174.80;25.92;;;5.00;99.90;;;;;;4974378;28;20041;-70
2022/12/21 00:33:29;;;;;;;46.08;19.75;;;5.10;99.90;;;;;;4974467;28;20066;-71
2022/12/21 00:35:55;;;;;;;34.53;18.30;;;5.10;99.90;;;;;;4974198;28;20050;-71
2022/12/21 00:38:20;;;;;;;37.38;18.73;;;5.20;99.90;;;;;;4973399;28;20542;-71
2022/12/21 00:40:46;;;;;;;156.95;24.65;;;5.20;99.90;;;;;;4974350;28;20041;-70
2022/12/21 00:43:12;;;;;;;43.70;20.83;;;5.20;99.90;;;;;;4974247;28;20023;-71
2022/12/21 00:45:38;;;;;;;73.47;23.75;;;5.30;99.90;;;;;;4974307;28;20490;-71
2022/12/21 00:48:04;;;;;;;44.20;20.67;;;5.40;99.90;;;;;;4974171;28;20041;-71
2022/12/21 00:50:33;;;;;;;59.78;22.90;;;5.40;99.90;;;;;;4973775;28;20039;-71
2022/12/21 00:52:59;;;;;;;46.28;22.65;;;5.40;99.90;;;;;;4973950;28;20033;-71
2022/12/21 00:55:24;;;;;;;44.05;20.92;;;5.40;99.90;;;;;;4976642;28;20121;-70
2022/12/21 00:57:50;;;;;;;47.92;20.65;;;5.40;99.90;;;;;;4977939;28;20022;-71
2022/12/21 01:00:16;;;;;;;40.10;18.75;;;5.40;99.90;;;;;;4977633;28;20030;-71
2022/12/21 01:02:41;;;;;;;33.13;17.08;;;5.40;99.90;;;;;;4976938;28;20073;-71
2022/12/21 01:05:07;;;;;;;154.88;24.45;;;5.30;99.90;;;;;;4977414;28;20023;-71
2022/12/21 01:07:32;;;;;;;40.47;19.15;;;5.30;99.90;;;;;;4977511;28;20490;-71
2022/12/21 01:09:58;;;;;;;127.50;21.35;;;5.20;99.90;;;;;;4977329;28;20093;-71
2022/12/21 01:12:23;;;;;;;51.60;20.05;;;5.20;99.90;;;;;;4977382;28;20058;-71
2022/12/21 01:14:49;;;;;;;111.07;20.45;;;5.20;99.90;;;;;;4976604;28;20478;-71
2022/12/21 01:17:14;;;;;;;288.65;29.42;;;5.20;99.90;;;;;;4977504;28;20043;-71
2022/12/21 01:19:40;;;;;;;148.93;25.33;;;5.30;99.90;;;;;;4992315;28;20033;-70
2022/12/21 01:22:05;;;;;;;67.30;25.02;;;5.40;99.90;;;;;;4977215;28;20027;-71
2022/12/21 01:24:31;;;;;;;127.18;26.92;;;5.40;99.90;;;;;;4977449;28;20023;-71
2022/12/21 01:26:56;;;;;;;140.35;28.00;;;5.40;99.90;;;;;;4976785;28;20514;-71
2022/12/21 01:29:22;;;;;;;164.00;30.80;;;5.30;99.90;;;;;;4977077;28;20459;-70
2022/12/21 01:31:48;;;;;;;154.27;30.63;;;5.30;99.90;;;;;;4977124;28;20125;-71
2022/12/21 01:34:13;;;;;;;142.95;31.17;;;5.30;99.90;;;;;;4977129;28;20059;-70
2022/12/21 01:36:39;;;;;;;185.48;31.05;;;5.30;99.90;;;;;;4976473;28;20475;-71
2022/12/21 01:39:04;;;;;;;133.95;30.63;;;5.20;99.90;;;;;;4977052;28;20034;-71
2022/12/21 01:41:31;;;;;;;228.95;32.88;;;5.30;99.90;;;;;;4976687;28;20081;-73
2022/12/21 01:43:59;;;;;;;89.13;29.27;;;5.20;99.90;;;;;;4976876;28;20074;-71
2022/12/21 01:46:46;;;;;;;133.40;30.15;;;5.20;99.90;;;;;;4976280;28;20031;-71
2022/12/21 01:49:26;;;;;;;76.03;28.17;;;5.20;99.90;;;;;;4976882;28;20026;-71
2022/12/21 01:51:59;;;;;;;404.83;41.53;;;5.20;99.90;;;;;;4977351;28;20030;-70
2022/12/21 01:54:33;;;;;;;156.23;31.63;;;5.30;99.90;;;;;;4976883;28;20034;-70
2022/12/21 01:57:02;;;;;;;285.23;38.00;;;5.20;99.90;;;;;;4977166;28;20117;-71
2022/12/21 01:59:35;;;;;;;128.52;28.60;;;5.30;99.90;;;;;;4976174;28;20052;-71
2022/12/21 02:02:06;;;;;;;47.55;25.40;;;5.20;99.90;;;;;;4976202;28;20636;-71
2022/12/21 02:04:31;;;;;;;92.05;27.05;;;5.20;99.90;;;;;;4976278;28;20035;-71
2022/12/21 02:06:58;;;;;;;321.05;35.05;;;5.10;99.90;;;;;;4975318;28;20559;-71
2022/12/21 02:09:30;;;;;;;502.10;38.88;;;5.10;99.90;;;;;;4976336;28;20050;-71
2022/12/21 02:11:59;;;;;;;223.60;28.88;;;5.10;99.90;;;;;;4977003;28;20458;-70
2022/12/21 02:14:28;;;;;;;310.92;36.20;;;5.10;99.90;;;;;;4976254;28;20034;-71
2022/12/21 02:17:16;;;;;;;724.60;49.72;;;5.10;99.90;;;;;;4975636;28;20046;-71
2022/12/21 02:19:56;;;;;;;49.60;24.60;;;5.10;99.90;;;;;;4970579;28;20114;-71
2022/12/21 02:22:46;;;;;;;533.95;43.13;;;5.00;99.90;;;;;;4976405;28;20030;-71
2022/12/21 02:25:30;;;;;;;174.45;28.65;;;4.90;99.90;;;;;;4976216;28;20394;-71
2022/12/21 02:28:33;;;;;;;245.85;31.02;;;4.80;99.90;;;;;;4990802;28;20396;-71
2022/12/21 02:31:36;;;;;;;219.43;33.95;;;4.80;99.90;;;;;;4976443;28;20065;-71
2022/12/21 02:34:17;;;;;;;82.53;27.15;;;4.90;99.90;;;;;;4990913;28;20037;-71
2022/12/21 02:36:52;;;;;;;179.88;34.22;;;4.90;99.90;;;;;;4975881;28;20026;-70
2022/12/21 02:39:41;;;;;;;85.00;29.35;;;5.00;99.90;;;;;;4975353;28;20035;-71
2022/12/21 02:45:39;;;;;;;125.97;31.83;;;5.10;99.90;;;;;;4975945;28;20542;-71
2022/12/21 02:48:07;;;;;;;290.13;37.30;;;5.20;99.90;;;;;;4956375;28;20031;-71
2022/12/21 02:50:38;;;;;;;74.32;28.58;;;5.20;99.90;;;;;;4955866;28;20032;-71
2022/12/21 02:53:16;;;;;;;150.98;32.00;;;5.20;99.90;;;;;;4956413;28;20086;-71
2022/12/21 02:55:47;;;;;;;100.68;26.20;;;5.20;99.90;;;;;;4956101;28;20031;-71
2022/12/21 02:58:21;;;;;;;279.58;36.95;;;5.10;99.90;;;;;;4967659;28;20033;-71
2022/12/21 03:00:52;;;;;;;228.88;33.15;;;5.20;99.90;;;;;;4975668;28;20077;-70
2022/12/21 03:03:49;;;;;;;212.60;33.28;;;5.20;99.90;;;;;;4974929;28;20027;-71
2022/12/21 03:06:33;;;;;;;70.93;25.55;;;5.20;99.90;;;;;;4975414;28;20015;-71
2022/12/21 03:09:14;;;;;;;107.78;27.33;;;5.20;99.90;;;;;;4975532;28;20520;-71
2022/12/21 03:11:50;;;;;;;110.32;28.55;;;5.30;99.90;;;;;;4975020;28;20478;-71
2022/12/21 03:14:37;;;;;;;96.72;27.02;;;5.30;99.90;;;;;;4975132;28;20078;-71
2022/12/21 03:17:24;;;;;;;91.60;23.90;;;5.40;99.90;;;;;;4975077;28;20486;-71
2022/12/21 03:20:07;;;;;;;65.25;23.55;;;5.40;99.90;;;;;;4974956;28;20038;-70
2022/12/21 03:22:43;;;;;;;197.32;27.50;;;5.50;99.90;;;;;;4974356;28;20023;-71
2022/12/21 03:25:36;;;;;;;117.40;24.85;;;5.50;99.90;;;;;;4975476;28;20055;-71
2022/12/21 03:28:08;;;;;;;312.02;30.58;;;5.40;99.90;;;;;;4974994;28;20015;-71
2022/12/21 03:30:40;;;;;;;285.95;31.88;;;5.50;99.90;;;;;;4975049;28;20033;-70
2022/12/21 03:33:10;;;;;;;253.23;27.95;;;5.50;99.90;;;;;;4974862;28;20503;-71
2022/12/21 03:36:08;;;;;;;117.32;24.45;;;5.50;99.90;;;;;;4974893;28;20031;-71
2022/12/21 03:38:41;;;;;;;129.55;22.88;;;5.50;99.90;;;;;;4967359;28;20114;-71
2022/12/21 03:41:14;;;;;;;126.40;23.05;;;5.50;99.90;;;;;;4975208;28;20027;-71
2022/12/21 03:43:42;;;;;;;214.73;24.48;;;5.40;99.90;;;;;;4974671;28;20086;-71
2022/12/21 03:46:17;;;;;;;161.80;21.38;;;5.40;99.90;;;;;;4974285;28;20058;-71
2022/12/21 03:48:50;;;;;;;274.55;27.70;;;5.40;99.90;;;;;;4974636;28;20019;-70
2022/12/21 03:51:41;;;;;;;159.45;22.67;;;5.30;99.90;;;;;;4989668;28;20027;-70
2022/12/21 03:54:21;;;;;;;177.13;26.05;;;5.30;99.90;;;;;;4974675;28;20052;-71
2022/12/21 03:56:48;;;;;;;60.00;18.80;;;5.30;99.90;;;;;;4974739;28;20027;-71
2022/12/21 03:59:15;;;;;;;80.72;19.08;;;5.30;99.90;;;;;;4974039;28;20074;-71
2022/12/21 04:02:08;;;;;;;55.50;16.65;;;5.20;99.90;;;;;;4974519;28;20030;-71
2022/12/21 04:04:57;;;;;;;67.65;17.75;;;5.20;99.90;;;;;;4970100;28;20491;-71
2022/12/21 04:07:25;;;;;;;43.25;15.43;;;5.30;99.90;;;;;;4974129;28;20039;-70
2022/12/21 04:10:04;;;;;;;243.48;22.80;;;5.20;99.90;;;;;;4974460;28;20031;-71
2022/12/21 04:12:41;;;;;;;244.02;20.77;;;5.20;99.90;;;;;;4974810;28;20026;-70
2022/12/21 04:15:21;;;;;;;57.47;17.17;;;5.20;99.90;;;;;;4973849;28;20031;-71
2022/12/21 04:17:49;;;;;;;175.02;20.52;;;5.20;99.90;;;;;;4973284;28;20062;-70
2022/12/21 04:20:19;;;;;;;70.45;17.27;;;5.20;99.90;;;;;;4974298;28;20054;-71
2022/12/21 04:28:24;;;;;;;148.02;18.50;;;5.10;99.90;;;;;;4974902;28;20025;-71
2022/12/21 04:30:50;;;;;;;180.48;21.52;;;5.10;99.90;;;;;;4977369;28;20102;-71
2022/12/21 04:33:18;;;;;;;93.15;17.95;;;5.00;99.90;;;;;;4977817;28;20491;-71
2022/12/21 04:38:31;;;;;;;83.00;17.40;;;5.00;99.90;;;;;;4978605;28;20398;-71
2022/12/21 04:40:57;;;;;;;164.07;18.73;;;5.00;99.90;;;;;;4977966;28;20052;-71
2022/12/21 04:43:23;;;;;;;146.98;20.15;;;4.90;99.90;;;;;;4978041;28;20018;-70
2022/12/21 04:45:49;;;;;;;79.40;17.85;;;4.90;99.90;;;;;;4977395;28;20034;-71
2022/12/21 04:48:16;;;;;;;111.30;18.27;;;4.90;99.90;;;;;;4977866;28;20023;-70
2022/12/21 04:50:42;;;;;;;222.90;23.17;;;4.90;99.90;;;;;;4977839;28;20039;-71
2022/12/21 04:53:08;;;;;;;172.20;20.95;;;4.90;99.90;;;;;;4977778;28;20396;-71
2022/12/21 04:55:34;;;;;;;54.03;16.73;;;4.90;99.90;;;;;;4976470;28;20049;-71
2022/12/21 04:57:59;;;;;;;223.75;23.15;;;4.90;99.90;;;;;;4995631;28;20478;-71
2022/12/21 05:00:25;;;;;;;128.18;19.05;;;4.90;99.90;;;;;;4996812;28;20034;-71
2022/12/21 05:02:51;;;;;;;135.60;18.60;;;4.80;99.90;;;;;;4997398;28;20019;-70
2022/12/21 05:05:16;;;;;;;171.30;19.80;;;4.90;99.90;;;;;;4997464;28;20027;-71
2022/12/21 05:07:42;;;;;;;208.93;20.20;;;4.80;99.90;;;;;;4991888;28;20049;-71
2022/12/21 05:10:08;;;;;;;268.23;21.70;;;4.80;99.90;;;;;;4991971;28;20046;-71
2022/12/21 05:12:34;;;;;;;370.35;21.67;;;4.70;99.90;;;;;;4977661;28;20063;-70
2022/12/21 05:15:00;;;;;;;396.60;24.83;;;4.70;99.90;;;;;;4977481;28;20519;-70
2022/12/21 05:17:25;;;;;;;195.80;16.70;;;4.70;99.90;;;;;;4977386;28;20105;-71
2022/12/21 05:19:50;;;;;;;197.27;19.48;;;4.80;99.90;;;;;;4977219;28;20401;-71
2022/12/21 05:22:17;;;;;;;394.50;24.08;;;4.80;99.90;;;;;;4977751;28;20482;-70
2022/12/21 05:24:44;;;;;;;256.05;18.85;;;4.80;99.90;;;;;;4977433;28;20019;-71
2022/12/21 05:27:10;;;;;;;222.13;19.45;;;4.80;99.90;;;;;;4976704;28;20065;-71
2022/12/21 05:29:35;;;;;;;231.90;20.00;;;4.80;99.90;;;;;;4977108;28;20026;-71
2022/12/21 05:32:01;;;;;;;165.30;16.35;;;4.80;99.90;;;;;;4977155;28;20162;-70
2022/12/21 05:34:27;;;;;;;202.68;17.10;;;4.80;99.90;;;;;;4976967;28;20046;-71
2022/12/21 05:36:52;;;;;;;142.27;16.50;;;4.80;99.90;;;;;;4975732;28;20037;-71
2022/12/21 05:39:18;;;;;;;325.23;22.13;;;4.90;99.90;;;;;;4976479;28;20034;-71
2022/12/21 05:41:43;;;;;;;183.98;19.02;;;4.90;99.90;;;;;;4975920;28;20038;-70
2022/12/21 05:44:09;;;;;;;58.53;15.93;;;4.90;99.90;;;;;;4977156;28;20038;-71
2022/12/21 05:46:35;;;;;;;148.88;20.13;;;4.90;99.90;;;;;;4977064;28;20411;-71
2022/12/21 05:49:00;;;;;;;198.45;22.33;;;4.90;99.90;;;;;;4976328;28;20379;-71
2022/12/21 05:51:26;;;;;;;173.77;19.60;;;4.90;99.90;;;;;;4975923;28;20035;-71
2022/12/21 05:53:53;;;;;;;173.07;21.88;;;4.90;99.90;;;;;;4977299;28;20034;-70
2022/12/21 05:56:18;;;;;;;108.40;17.00;;;5.00;99.90;;;;;;4976203;28;20046;-71
2022/12/21 05:58:44;;;;;;;120.22;20.90;;;5.00;99.90;;;;;;4976642;28;20065;-70
2022/12/21 06:01:11;;;;;;;168.35;22.42;;;5.00;99.90;;;;;;4976374;28;20494;-71
2022/12/21 06:03:38;;;;;;;243.75;23.50;;;5.00;99.90;;;;;;4975376;28;20110;-70
2022/12/21 06:06:06;;;;;;;70.78;17.40;;;5.00;99.90;;;;;;4981077;28;20537;-71
2022/12/21 06:08:32;;;;;;;124.72;18.65;;;5.00;99.90;;;;;;4995914;28;20371;-70
2022/12/21 06:11:06;;;;;;;166.57;20.85;;;5.00;99.90;;;;;;4995808;28;20022;-71
2022/12/21 06:13:32;;;;;;;128.93;18.27;;;5.00;99.90;;;;;;4996100;28;20027;-70
2022/12/21 06:16:05;;;;;;;129.48;18.67;;;5.10;99.90;;;;;;4995781;28;20509;-71
2022/12/21 06:18:30;;;;;;;138.68;17.25;;;5.10;99.90;;;;;;4980106;28;20034;-71
2022/12/21 06:20:56;;;;;;;50.70;14.82;;;5.10;99.90;;;;;;4975761;28;20030;-70
2022/12/21 06:23:21;;;;;;;166.70;19.30;;;5.10;99.90;;;;;;4976214;28;20019;-70
2022/12/21 06:25:47;;;;;;;157.13;18.73;;;5.10;99.90;;;;;;4976329;28;20510;-71
2022/12/21 06:28:12;;;;;;;126.93;17.35;;;5.00;99.90;;;;;;4976607;28;20042;-71
2022/12/21 06:30:38;;;;;;;91.90;16.35;;;5.00;99.90;;;;;;4976022;28;20027;-70
2022/12/21 06:33:03;;;;;;;109.88;17.27;;;5.00;99.90;;;;;;4975965;28;20035;-72
2022/12/21 06:35:29;;;;;;;96.63;16.98;;;5.00;99.90;;;;;;4975659;28;20034;-71
2022/12/21 06:37:54;;;;;;;96.18;14.45;;;5.00;99.90;;;;;;4976420;28;20034;-70
2022/12/21 06:40:20;;;;;;;104.28;16.23;;;5.00;99.90;;;;;;4975784;28;20038;-71
2022/12/21 06:42:46;;;;;;;101.20;16.38;;;4.90;99.90;;;;;;4990319;28;20027;-71
2022/12/21 06:45:11;;;;;;;90.60;15.88;;;4.90;99.90;;;;;;4975434;28;20490;-71
2022/12/21 06:47:37;;;;;;;181.25;18.25;;;4.90;99.90;;;;;;4975065;28;20031;-71
2022/12/21 06:50:02;;;;;;;75.43;11.45;;;4.90;99.90;;;;;;4975997;28;20034;-71
2022/12/21 06:52:28;;;;;;;139.80;14.80;;;4.80;99.90;;;;;;4975588;28;20526;-70
2022/12/21 06:54:55;;;;;;;132.13;14.05;;;4.80;99.90;;;;;;4990393;28;20469;-71
2022/12/21 06:57:20;;;;;;;160.40;14.00;;;4.80;99.90;;;;;;4975503;28;20023;-71
2022/12/21 06:59:46;;;;;;;274.02;15.75;;;4.80;99.90;;;;;;4974989;28;20406;-71
2022/12/21 07:02:11;;;;;;;27.80;8.48;;;4.70;99.90;;;;;;4975420;28;20031;-70
2022/12/21 07:04:37;;;;;;;148.90;12.90;;;4.60;99.90;;;;;;4975228;28;20030;-71
2022/12/21 07:07:02;;;;;;;93.45;10.52;;;4.50;99.90;;;;;;4975400;28;20027;-71
2022/12/21 07:09:28;;;;;;;39.08;9.07;;;4.50;99.90;;;;;;4975646;28;20110;-71
2022/12/21 07:11:54;;;;;;;186.73;13.15;;;4.40;99.90;;;;;;4975574;28;20038;-70
2022/12/21 07:14:19;;;;;;;45.22;9.35;;;4.40;99.90;;;;;;4974813;28;20027;-71
2022/12/21 07:16:45;;;;;;;71.00;10.82;;;4.40;99.90;;;;;;4974800;28;20039;-71
2022/12/21 07:19:10;;;;;;;106.35;10.93;;;4.30;99.90;;;;;;4975541;28;20034;-70
2022/12/21 07:21:36;;;;;;;73.15;12.18;;;4.30;99.90;;;;;;4974659;28;20038;-71
2022/12/21 07:24:01;;;;;;;143.10;12.18;;;4.30;99.90;;;;;;4975325;28;20054;-70
2022/12/21 07:26:27;;;;;;;160.35;14.02;;;4.30;99.90;;;;;;4975046;28;20498;-71
2022/12/21 07:28:54;;;;;;;124.38;10.65;;;4.30;99.90;;;;;;4975280;28;20054;-70
2022/12/21 07:31:22;;;;;;;350.88;17.52;;;4.30;99.90;;;;;;4975220;28;20110;-70
2022/12/21 07:33:48;;;;;;;217.25;14.52;;;4.30;99.90;;;;;;4974493;28;20031;-71
2022/12/21 07:36:14;;;;;;;165.00;16.42;;;4.20;99.90;;;;;;4974736;28;20497;-71
2022/12/21 07:38:41;;;;;;;135.65;11.77;;;4.20;99.90;;;;;;4975362;28;20356;-70
2022/12/21 07:41:12;;;;;;;160.52;12.35;;;4.20;99.90;;;;;;4974997;28;20030;-71
2022/12/21 07:43:38;;;;;;;112.93;11.20;;;4.10;99.90;;;;;;4973452;28;20019;-71
2022/12/21 07:46:04;;;;;;;191.82;12.85;;;4.10;99.90;;;;;;4974284;28;20077;-71
2022/12/21 07:48:30;;;;;;;73.32;10.35;;;4.00;99.90;;;;;;4974990;28;20023;-70
2022/12/21 07:50:55;;;;;;;141.77;11.30;;;4.00;99.90;;;;;;4974643;28;20030;-71
2022/12/21 07:53:21;;;;;;;180.27;12.25;;;3.90;99.90;;;;;;4974669;28;20022;-70
2022/12/21 07:55:47;;;;;;;211.10;14.60;;;3.80;99.90;;;;;;4974677;28;20031;-70
2022/12/21 07:58:12;;;;;;;162.68;12.70;;;3.70;99.90;;;;;;4974037;28;20026;-70
2022/12/21 08:00:39;;;;;;;289.00;14.80;;;3.70;99.90;;;;;;4974426;28;20039;-70
2022/12/21 08:03:05;;;;;;;233.68;14.13;;;3.70;99.90;;;;;;4974239;28;20023;-71
2022/12/21 08:05:31;;;;;;;214.25;13.77;;;3.70;99.90;;;;;;4973481;28;20134;-71
2022/12/21 08:07:58;;;;;;;133.63;11.68;;;3.70;99.90;;;;;;4974514;28;20027;-70
2022/12/21 08:10:23;;;;;;;256.08;13.15;;;3.60;99.90;;;;;;4974506;28;20501;-71
2022/12/21 08:12:49;;;;;;;134.35;9.65;;;3.60;99.90;;;;;;4974665;28;20109;-70
2022/12/21 08:15:14;;;;;;;155.23;13.15;;;3.50;99.90;;;;;;4974167;28;20027;-70
2022/12/21 08:17:40;;;;;;;151.25;13.77;;;3.50;99.90;;;;;;4974060;28;20051;-71
2022/12/21 08:20:06;;;;;;;88.32;9.70;;;3.50;99.90;;;;;;4974736;28;20498;-70
2022/12/21 08:22:32;;;;;;;260.90;15.30;;;3.60;99.90;;;;;;4974126;28;20022;-71
2022/12/21 08:24:58;;;;;;;346.23;17.73;;;3.60;99.90;;;;;;4974302;28;20106;-71
2022/12/21 08:27:24;;;;;;;258.02;16.52;;;3.60;99.90;;;;;;4974341;28;20058;-70
2022/12/21 08:29:49;;;;;;;182.07;14.70;;;3.60;99.90;;;;;;4974388;28;20035;-71
2022/12/21 08:32:15;;;;;;;245.00;16.50;;;3.70;99.90;;;;;;4974433;28;20487;-71
2022/12/21 08:34:40;;;;;;;171.02;15.18;;;3.70;99.90;;;;;;4974209;28;20030;-71
2022/12/21 08:37:06;;;;;;;269.08;21.77;;;3.70;99.90;;;;;;4989440;28;20126;-70
2022/12/21 08:39:31;;;;;;;189.75;16.42;;;3.70;99.90;;;;;;4974525;28;20041;-71
2022/12/21 08:41:57;;;;;;;236.35;18.05;;;3.80;99.90;;;;;;4973690;28;20031;-71
2022/12/21 08:44:22;;;;;;;96.47;12.93;;;3.80;99.90;;;;;;4974154;28;20490;-71
2022/12/21 08:46:48;;;;;;;320.10;20.88;;;3.90;99.90;;;;;;4989050;28;20031;-70
2022/12/21 08:49:13;;;;;;;207.38;16.13;;;3.90;99.90;;;;;;4974671;28;20114;-70
2022/12/21 08:51:39;;;;;;;127.35;15.25;;;3.90;99.90;;;;;;4974012;28;20033;-71
2022/12/21 08:54:06;;;;;;;289.30;18.42;;;4.00;99.90;;;;;;4973891;28;20030;-71
2022/12/21 08:56:32;;;;;;;91.68;13.50;;;4.10;99.90;;;;;;4974030;28;20046;-70
2022/12/21 08:59:03;;;;;;;314.50;20.50;;;4.10;99.90;;;;;;4972803;28;20051;-71
2022/12/21 09:01:29;;;;;;;126.18;14.95;;;4.20;99.90;;;;;;4973832;28;20395;-70
2022/12/21 09:03:55;;;;;;;47.33;13.10;;;4.30;99.90;;;;;;4983303;28;20026;-71
2022/12/21 09:06:20;;;;;;;383.25;24.17;;;4.30;99.90;;;;;;4992810;28;20085;-70
2022/12/21 09:08:46;;;;;;;380.20;23.10;;;4.30;99.90;;;;;;4993294;28;20026;-70
2022/12/21 09:11:14;;;;;;;125.22;13.82;;;4.30;99.90;;;;;;4993620;28;20041;-70
2022/12/21 09:13:40;;;;;;;247.05;18.73;;;4.30;99.90;;;;;;4993539;28;20394;-70
2022/12/21 09:16:23;;;;;;;171.68;15.82;;;4.40;99.90;;;;;;4977171;28;20049;-70
2022/12/21 09:18:50;;;;;;;147.32;16.05;;;4.50;99.90;;;;;;4976898;28;20031;-71
2022/12/21 09:21:17;;;;;;;212.60;17.67;;;4.50;99.90;;;;;;4977395;28;20094;-70
2022/12/21 09:23:43;;;;;;;60.05;13.27;;;4.50;99.90;;;;;;4977325;28;20034;-70
2022/12/21 09:26:09;;;;;;;165.70;16.75;;;4.60;99.90;;;;;;4977152;28;20035;-71
2022/12/21 09:28:36;;;;;;;108.93;15.40;;;4.60;99.90;;;;;;4977316;28;20026;-72
2022/12/21 09:31:21;;;;;;;106.00;12.98;;;4.60;99.90;;;;;;4977255;28;20038;-72
2022/12/21 09:33:54;;;;;;;189.57;15.35;;;4.60;99.90;;;;;;4977120;28;20030;-73
2022/12/21 09:36:21;;;;;;;53.75;12.02;;;4.60;99.90;;;;;;4977286;28;20150;-73
2022/12/21 09:38:47;;;;;;;48.75;12.30;;;4.70;99.90;;;;;;4977427;28;20034;-72
2022/12/21 09:41:24;;;;;;;94.00;13.90;;;4.70;99.90;;;;;;4976896;28;20035;-73
2022/12/21 09:44:18;;;;;;;118.80;12.90;;;4.80;99.90;;;;;;4977444;28;20483;-72
2022/12/21 09:46:45;;;;;;;98.38;15.98;;;4.80;99.90;;;;;;4976825;28;20103;-73
2022/12/21 09:49:16;;;;;;;75.32;12.63;;;4.80;99.90;;;;;;4977764;28;20382;-72
2022/12/21 09:51:55;;;;;;;82.63;15.30;;;4.90;99.90;;;;;;4977403;28;20467;-72
2022/12/21 09:54:33;;;;;;;56.25;12.75;;;4.90;99.90;;;;;;4992265;28;20384;-72
2022/12/21 09:56:58;;;;;;;128.45;17.00;;;4.80;99.90;;;;;;4977217;28;20027;-72
2022/12/21 09:59:24;;;;;;;142.45;17.20;;;4.80;99.90;;;;;;4976094;28;20034;-72
2022/12/21 10:02:28;;;;;;;117.80;15.85;;;4.70;99.90;;;;;;4976707;28;20031;-72
2022/12/21 10:05:13;;;;;;;115.07;15.63;;;4.70;99.90;;;;;;4976301;28;20019;-72
2022/12/21 10:07:54;;;;;;;163.65;16.33;;;4.70;99.90;;;;;;4976099;28;20031;-72
2022/12/21 10:10:30;;;;;;;90.22;15.30;;;4.70;99.90;;;;;;4977000;28;20538;-72
2022/12/21 10:13:37;;;;;;;116.57;16.48;;;4.60;99.90;;;;;;4976891;28;20030;-72
2022/12/21 10:16:23;;;;;;;122.57;14.27;;;4.60;99.90;;;;;;4976345;28;20043;-72
2022/12/21 10:18:54;;;;;;;140.23;14.55;;;4.60;99.90;;;;;;4976679;28;20692;-70
2022/12/21 10:21:29;;;;;;;80.55;12.23;;;4.60;99.90;;;;;;4975751;28;20376;-70
2022/12/21 10:23:56;;;;;;;109.10;12.68;;;4.60;99.90;;;;;;4976226;28;20486;-70
2022/12/21 10:26:27;;;;;;;66.20;11.68;;;4.60;99.90;;;;;;4976103;28;20031;-70
2022/12/21 10:29:06;;;;;;;134.80;12.95;;;4.60;99.90;;;;;;4975887;28;20479;-70
2022/12/21 10:31:44;;;;;;;155.43;13.30;;;4.60;99.90;;;;;;4976209;28;20034;-70
2022/12/21 10:34:15;;;;;;;184.82;14.52;;;4.60;99.90;;;;;;4976014;28;20026;-70
2022/12/21 10:36:42;;;;;;;232.55;14.52;;;4.50;99.90;;;;;;4976150;28;20105;-69
2022/12/21 10:39:12;;;;;;;206.48;14.00;;;4.40;99.90;;;;;;4975830;28;20019;-70
2022/12/21 10:41:42;;;;;;;115.45;11.63;;;4.40;99.90;;;;;;4975209;28;20031;-70
2022/12/21 10:44:10;;;;;;;82.07;10.20;;;4.40;99.90;;;;;;4975912;28;20541;-70
2022/12/21 10:46:37;;;;;;;233.32;14.95;;;4.40;99.90;;;;;;4975859;28;20030;-70
2022/12/21 10:49:15;;;;;;;241.30;14.45;;;4.40;99.90;;;;;;4975395;28;20490;-70
2022/12/21 10:51:40;;;;;;;218.68;16.02;;;4.30;99.90;;;;;;4975587;28;20035;-70
2022/12/21 10:54:08;;;;;;;262.10;15.15;;;4.30;99.90;;;;;;4975597;28;20034;-69
2022/12/21 10:56:45;;;;;;;294.58;15.48;;;4.30;99.90;;;;;;4976294;28;20376;-70
2022/12/21 10:59:23;;;;;;;174.35;12.30;;;4.30;99.90;;;;;;4975322;28;20106;-70
2022/12/21 11:01:50;;;;;;;229.48;11.82;;;4.40;99.90;;;;;;4975520;28;20050;-70
2022/12/21 11:04:26;;;;;;;245.70;13.40;;;4.40;99.90;;;;;;4975403;28;20034;-71
2022/12/21 11:07:28;;;;;;;293.63;14.80;;;4.40;99.90;;;;;;4975743;28;20025;-70
2022/12/21 11:09:58;;;;;;;151.70;11.65;;;4.30;99.90;;;;;;4968023;28;20495;-70
2022/12/21 11:12:25;;;;;;;269.15;14.82;;;4.40;99.90;;;;;;4974944;28;20058;-71
2022/12/21 11:14:52;;;;;;;137.02;10.68;;;4.40;99.90;;;;;;4975085;28;20380;-70
2022/12/21 11:17:27;;;;;;;81.43;9.20;;;4.50;99.90;;;;;;4970348;28;20031;-70
2022/12/21 11:20:05;;;;;;;62.35;10.02;;;4.50;99.90;;;;;;4955844;28;20027;-69
2022/12/21 11:22:32;;;;;;;261.85;15.40;;;4.60;99.90;;;;;;4963621;28;20027;-69
2022/12/21 11:24:59;;;;;;;279.75;14.65;;;4.60;99.90;;;;;;4974759;28;20074;-70
2022/12/21 11:27:31;;;;;;;60.17;9.60;;;4.60;99.90;;;;;;4975027;28;20483;-69
2022/12/21 11:30:15;;;;;;;140.75;13.00;;;4.60;99.90;;;;;;4975318;28;20027;-69
2022/12/21 11:32:46;;;;;;;203.50;14.27;;;4.70;99.90;;;;;;4974607;28;20457;-70
2022/12/21 11:35:37;;;;;;;215.98;14.13;;;4.70;99.90;;;;;;4974857;28;20520;-70
2022/12/21 11:38:10;;;;;;;99.68;12.32;;;4.70;99.90;;;;;;4972720;28;20031;-70
2022/12/21 11:40:36;;;;;;;130.63;12.20;;;4.60;99.90;;;;;;4974527;28;20478;-70
2022/12/21 11:43:04;;;;;;;307.13;16.27;;;4.70;99.90;;;;;;4974781;28;20068;-69
2022/12/21 11:45:45;;;;;;;119.70;10.75;;;4.70;99.90;;;;;;4974611;28;20502;-70
2022/12/21 11:48:42;;;;;;;107.78;12.43;;;4.80;99.90;;;;;;4974215;28;20027;-70
2022/12/21 11:51:25;;;;;;;242.13;14.18;;;4.80;99.90;;;;;;4974777;28;20069;-70
2022/12/21 11:54:14;;;;;;;163.07;13.75;;;4.70;99.90;;;;;;4974719;28;20126;-70
2022/12/21 11:57:00;;;;;;;102.95;10.77;;;4.60;99.90;;;;;;4974208;28;20401;-70
2022/12/21 11:59:44;;;;;;;208.77;13.23;;;4.60;99.90;;;;;;4974859;28;20031;-70
2022/12/21 12:02:48;;;;;;;147.82;12.27;;;4.50;99.90;;;;;;4974731;28;20034;-70
2022/12/21 12:05:25;;;;;;;158.40;13.63;;;4.50;99.90;;;;;;4933526;29;20065;-70
2022/12/21 12:07:58;;;;;;;113.32;11.15;;;4.60;99.90;;;;;;4934474;29;20103;-69
2022/12/21 12:10:37;;;;;;;133.27;12.93;;;4.50;99.90;;;;;;4958059;28;20483;-69
2022/12/21 12:13:34;;;;;;;209.15;13.50;;;4.50;99.90;;;;;;4988859;28;20030;-70
2022/12/21 12:16:32;;;;;;;222.95;16.20;;;4.40;99.90;;;;;;4989285;28;20561;-70
2022/12/21 12:19:21;;;;;;;163.38;12.98;;;4.40;99.90;;;;;;4989439;28;20027;-69
2022/12/21 12:22:14;;;;;;;213.93;13.10;;;4.50;99.90;;;;;;4974656;28;20026;-69
2022/12/21 12:25:01;;;;;;;63.70;10.43;;;4.50;99.90;;;;;;4989328;28;20398;-70
2022/12/21 12:27:51;;;;;;;86.88;11.00;;;4.50;99.90;;;;;;4973924;28;20019;-70
2022/12/21 12:30:20;;;;;;;202.55;15.98;;;4.60;99.90;;;;;;4974364;28;20023;-69
2022/12/21 12:33:24;;;;;;;111.20;12.70;;;4.60;99.90;;;;;;4974283;28;20438;-70
2022/12/21 12:36:24;;;;;;;191.33;15.13;;;4.60;99.90;;;;;;4958398;28;20049;-70
2022/12/21 12:39:27;;;;;;;290.58;15.57;;;4.70;99.90;;;;;;4955593;28;20039;-69
2022/12/21 12:42:08;;;;;;;187.68;13.70;;;4.60;99.90;;;;;;4974262;28;20037;-69
2022/12/21 12:44:58;;;;;;;317.30;16.25;;;4.70;99.90;;;;;;4972925;28;20023;-70
2022/12/21 12:47:31;;;;;;;124.95;11.98;;;4.60;99.90;;;;;;4974302;28;20594;-69
2022/12/21 12:50:02;;;;;;;159.18;13.32;;;4.60;99.90;;;;;;4974092;28;20034;-70
2022/12/21 12:52:45;;;;;;;166.05;13.40;;;4.60;99.90;;;;;;4977908;28;20104;-70
2022/12/21 12:55:37;;;;;;;125.78;12.60;;;4.70;99.90;;;;;;4978040;28;20031;-70
2022/12/21 12:58:22;;;;;;;104.82;11.98;;;4.60;99.90;;;;;;4977858;28;20438;-69
2022/12/21 13:01:05;;;;;;;135.55;13.60;;;4.50;99.90;;;;;;4977995;28;20387;-69
2022/12/21 13:03:37;;;;;;;175.50;13.50;;;4.50;99.90;;;;;;4977589;28;20360;-70
2022/12/21 13:06:24;;;;;;;153.80;13.55;;;4.50;99.90;;;;;;4977515;28;20026;-70